»·PEaware :: N333ZA KSZP-L35

N333ZA :: KSZP-L35

FLIGHT INFORMATION

Flight Status: Arrived
Operator: Privately registered:
United States
More flights under this callsign
Pilot: Judd H. (29974)
Aircraft: CESSNA 210 CENTURION
(C210)
More flights by this aircraft type
Origin: KSZP Santa Paula
United States
Destination: L35 Big Bear City
United States
More flights between these airports :: More routes between these airports
Route: +FIM V186 PIRRO V210 POM V264 RAVON V8 ARRAN
File this flight plan on PilotEdge
Remarks:
Altitude:
(Current/Filed)
11,000ft
Speed:
(Current/Filed)
150kts
Departed: 07-Nov-20 02:05 PM
Arrived: 07-Nov-20 02:57 PM
Distance/Time
Traveled:
110nm/0:51
Distance/Time
To Go:
Arrived

Flight Plot

Page will automatically refresh every two minutes.

Flight plan parsing failed; only flown route is shown


Map Options




Map Legend


Flown Route
Filed Route
Departure Airport
Arrival Airport
Navaid (VOR, NDB)
Fix

Horizontal Profiles

Position Reports

Time Latitude Longitude Heading Altitude Ground
Speed
07-Nov-20 13:49 34.345270 -119.063928 337 248ft 0kts
07-Nov-20 13:50 34.345270 -119.063928 337 248ft 0kts
07-Nov-20 13:51 34.345270 -119.063928 337 248ft 0kts
07-Nov-20 13:52 34.345270 -119.063928 337 248ft 0kts
07-Nov-20 13:53 34.345270 -119.063928 337 248ft 0kts
07-Nov-20 13:54 34.345270 -119.063928 337 248ft 0kts
07-Nov-20 13:55 34.345270 -119.063928 337 248ft 0kts
07-Nov-20 13:56 34.345270 -119.063928 337 248ft 0kts
07-Nov-20 13:57 34.345270 -119.063928 337 248ft 0kts
07-Nov-20 13:58 34.345270 -119.063928 337 248ft 0kts
07-Nov-20 13:59 34.345270 -119.063928 337 248ft 0kts
07-Nov-20 14:00 34.345270 -119.063928 337 248ft 0kts
07-Nov-20 14:01 34.346561 -119.061725 57 248ft 25kts
07-Nov-20 14:02 34.348590 -119.058233 60 248ft 8kts
07-Nov-20 14:03 34.349231 -119.057537 237 248ft 6kts
07-Nov-20 14:04 34.338934 -119.076775 239 814ft 104kts
07-Nov-20 14:05 34.344263 -119.104735 348 2299ft 110kts
07-Nov-20 14:06 34.359193 -119.072327 90 3239ft 148kts
07-Nov-20 14:07 34.356419 -119.019680 93 4050ft 163kts
07-Nov-20 14:08 34.355038 -118.964625 89 4908ft 149kts
07-Nov-20 14:09 34.353813 -118.911500 94 5647ft 161kts
07-Nov-20 14:10 34.359540 -118.859635 59 6555ft 157kts
07-Nov-20 14:11 34.378969 -118.812009 55 7427ft 161kts
07-Nov-20 14:12 34.395867 -118.763560 59 8470ft 154kts
07-Nov-20 14:13 34.413664 -118.716451 58 9347ft 160kts
07-Nov-20 14:14 34.430909 -118.666934 61 10261ft 160kts
07-Nov-20 14:15 34.446891 -118.616194 62 11003ft 170kts
07-Nov-20 14:16 34.467234 -118.558232 60 11003ft 197kts
07-Nov-20 14:17 34.488509 -118.496122 62 11000ft 202kts
07-Nov-20 14:18 34.509518 -118.432680 62 10992ft 202kts
07-Nov-20 14:19 34.528279 -118.368992 64 10968ft 198kts
07-Nov-20 14:20 34.545527 -118.306080 64 11001ft 195kts
07-Nov-20 14:21 34.566811 -118.246210 57 10999ft 192kts
07-Nov-20 14:22 34.589224 -118.187391 57 11000ft 191kts
07-Nov-20 14:23 34.611461 -118.128785 57 11003ft 190kts
07-Nov-20 14:24 34.630934 -118.068733 71 11003ft 195kts
07-Nov-20 14:25 34.625212 -118.000972 92 11003ft 202kts
07-Nov-20 14:26 34.620757 -117.933442 89 10995ft 200kts
07-Nov-20 14:27 34.615671 -117.866405 92 10983ft 197kts
07-Nov-20 14:28 34.610897 -117.800476 92 10973ft 194kts
07-Nov-20 14:29 34.605737 -117.735665 94 10962ft 192kts
07-Nov-20 14:30 34.600940 -117.671507 93 10964ft 190kts
07-Nov-20 14:31 34.593655 -117.607563 97 10964ft 191kts
07-Nov-20 14:32 34.585096 -117.543348 97 10966ft 193kts
07-Nov-20 14:33 34.577106 -117.478476 94 10972ft 197kts
07-Nov-20 14:34 34.568188 -117.411944 94 10977ft 200kts
07-Nov-20 14:35 34.559983 -117.345095 92 10977ft 200kts
07-Nov-20 14:36 34.554513 -117.278135 84 10977ft 198kts
07-Nov-20 14:37 34.552662 -117.210628 87 10978ft 200kts
07-Nov-20 14:38 34.547069 -117.142802 94 10978ft 203kts
07-Nov-20 14:39 34.537904 -117.075184 94 10977ft 202kts
07-Nov-20 14:40 34.529194 -117.007873 90 10978ft 201kts
07-Nov-20 14:41 34.525042 -116.940205 88 10959ft 201kts
07-Nov-20 14:42 34.523956 -116.872354 85 10968ft 201kts
07-Nov-20 14:43 34.518907 -116.804070 93 10969ft 204kts
07-Nov-20 14:44 34.511153 -116.735985 93 10967ft 204kts
07-Nov-20 14:45 34.490902 -116.675329 154 10983ft 203kts
07-Nov-20 14:46 34.437890 -116.651199 164 10734ft 208kts
07-Nov-20 14:47 34.383560 -116.626511 165 10036ft 205kts
07-Nov-20 14:48 34.329477 -116.607771 171 9412ft 196kts
07-Nov-20 14:49 34.279887 -116.602712 207 9346ft 167kts
07-Nov-20 14:50 34.263458 -116.644518 273 9289ft 142kts
07-Nov-20 14:51 34.263162 -116.691544 273 9065ft 142kts
07-Nov-20 14:52 34.264210 -116.740226 273 8431ft 143kts
07-Nov-20 14:53 34.264223 -116.787247 273 7631ft 126kts
07-Nov-20 14:54 34.263913 -116.824600 271 7207ft 90kts
07-Nov-20 14:55 34.263794 -116.852480 272 6756ft 49kts
07-Nov-20 14:56 34.263185 -116.855178 92 6755ft 11kts
07-Nov-20 14:57 34.262667 -116.854017 181 6755ft 0kts
07-Nov-20 14:59 34.262667 -116.854017 181 6755ft 0kts
07-Nov-20 15:00 34.262667 -116.854017 181 6755ft 0kts
07-Nov-20 15:01 34.262667 -116.854017 181 6755ft 0kts
07-Nov-20 15:02 34.262667 -116.854017 181 6755ft 0kts
07-Nov-20 15:03 34.262667 -116.854017 181 6755ft 0kts
07-Nov-20 15:04 34.262667 -116.854017 181 6755ft 0kts
07-Nov-20 15:05 34.262667 -116.854017 181 6755ft 0kts
07-Nov-20 15:06 34.262667 -116.854017 181 6755ft 0kts
07-Nov-20 15:07 34.262667 -116.854017 181 6755ft 0kts
07-Nov-20 15:08 34.262667 -116.854017 181 6755ft 0kts
07-Nov-20 15:09 34.262667 -116.854017 181 6755ft 0kts
07-Nov-20 15:10 34.262667 -116.854017 181 6755ft 0kts
07-Nov-20 15:11 34.262667 -116.854017 181 6755ft 0kts

Navigation Log

Ident Type
Flight plan parsing failed, navigation log unavailable